createdAt,value
2022-09-14T00:01:25.919Z,97.11
2022-09-14T00:03:56.011Z,95.27
2022-09-14T00:06:23.243Z,92.14
2022-09-14T00:08:52.676Z,91.58
2022-09-14T00:11:20.878Z,89.45
2022-09-14T00:13:48.396Z,85.90
2022-09-14T00:16:19.843Z,86.42
2022-09-14T00:18:54.727Z,86.28
2022-09-14T00:21:22.689Z,87.00
2022-09-14T00:23:49.964Z,86.06
2022-09-14T00:26:20.201Z,84.70
2022-09-14T00:28:53.416Z,81.84
2022-09-14T00:31:21.447Z,80.55
2022-09-14T00:33:50.499Z,80.29
2022-09-14T00:36:26.710Z,80.33
2022-09-14T00:38:58.206Z,80.43
2022-09-14T00:41:29.035Z,80.05
2022-09-14T00:44:11.117Z,79.99
2022-09-14T00:46:40.812Z,80.03
2022-09-14T00:49:19.477Z,80.32
2022-09-14T00:51:53.229Z,79.33
2022-09-14T00:54:20.545Z,78.31
2022-09-14T00:56:49.129Z,79.34
2022-09-14T00:59:22.693Z,78.89
2022-09-14T01:01:50.614Z,79.88
2022-09-14T01:04:17.720Z,80.18
2022-09-14T01:07:29.007Z,79.43
2022-09-14T01:10:32.927Z,79.99
2022-09-14T01:13:12.124Z,78.74
2022-09-14T01:16:11.834Z,76.89
2022-09-14T01:18:55.703Z,76.82
2022-09-14T01:21:38.376Z,76.87
2022-09-14T01:24:08.531Z,74.90
2022-09-14T01:26:37.984Z,74.87
2022-09-14T01:29:12.163Z,74.48
2022-09-14T01:32:01.412Z,73.93
2022-09-14T01:34:33.129Z,74.58
2022-09-14T01:37:06.397Z,74.18
2022-09-14T01:39:35.953Z,74.65
2022-09-14T01:42:03.992Z,74.13
2022-09-14T01:44:36.115Z,72.02
2022-09-14T01:47:13.366Z,74.05
2022-09-14T01:49:55.902Z,75.44
2022-09-14T01:52:31.005Z,76.40
2022-09-14T01:55:04.502Z,77.83
2022-09-14T01:57:37.138Z,78.47
2022-09-14T02:00:11.234Z,77.69
2022-09-14T02:02:47.267Z,77.12
2022-09-14T02:05:28.879Z,76.50
2022-09-14T02:07:56.672Z,75.63
2022-09-14T02:10:24.609Z,74.38
2022-09-14T02:12:53.680Z,73.48
2022-09-14T02:15:21.672Z,73.37
2022-09-14T02:17:49.533Z,72.46
2022-09-14T02:20:25.791Z,72.54
2022-09-14T02:22:53.163Z,71.77
2022-09-14T02:25:21.007Z,72.02
2022-09-14T02:27:48.524Z,72.05
2022-09-14T02:30:17.327Z,71.40
2022-09-14T02:32:52.875Z,72.08
2022-09-14T02:35:41.755Z,72.16
2022-09-14T02:38:20.437Z,72.78
2022-09-14T02:41:13.022Z,73.33
2022-09-14T02:43:51.167Z,73.10
2022-09-14T02:46:45.210Z,73.67
2022-09-14T02:49:27.284Z,74.10
2022-09-14T02:52:06.220Z,73.88
2022-09-14T02:54:41.284Z,73.95
2022-09-14T02:57:08.263Z,73.70
2022-09-14T02:59:35.270Z,73.40
2022-09-14T03:02:02.215Z,72.77
2022-09-14T03:04:29.218Z,72.28
2022-09-14T03:06:56.973Z,71.45
2022-09-14T03:09:23.905Z,71.56
2022-09-14T03:11:50.903Z,71.39
2022-09-14T03:14:17.796Z,71.21
2022-09-14T03:16:44.806Z,70.78
2022-09-14T03:19:12.501Z,70.21
2022-09-14T03:21:40.019Z,71.37
2022-09-14T03:24:07.580Z,72.45
2022-09-14T03:26:37.085Z,72.64
2022-09-14T03:29:05.629Z,72.07
2022-09-14T03:31:33.645Z,73.03
2022-09-14T03:34:02.213Z,73.11
2022-09-14T03:36:31.919Z,72.89
2022-09-14T03:39:02.014Z,73.68
2022-09-14T03:41:29.216Z,73.90
2022-09-14T03:43:56.257Z,73.83
2022-09-14T03:46:25.565Z,74.40
2022-09-14T03:48:52.667Z,75.14
2022-09-14T03:51:19.734Z,76.22
2022-09-14T03:53:46.848Z,76.46
2022-09-14T03:56:19.491Z,77.51
2022-09-14T03:58:47.660Z,78.24
2022-09-14T04:01:18.187Z,79.35
2022-09-14T04:03:45.959Z,79.50
2022-09-14T04:06:13.340Z,79.23
2022-09-14T04:08:41.556Z,78.05
2022-09-14T04:11:20.993Z,78.95
2022-09-14T04:13:48.538Z,80.42
2022-09-14T04:16:16.760Z,81.03
2022-09-14T04:18:44.732Z,81.76
2022-09-14T04:21:15.080Z,82.13
2022-09-14T04:24:10.078Z,83.01
2022-09-14T04:26:30.516Z,83.45
2022-09-14T04:28:58.478Z,83.15
2022-09-14T04:31:25.761Z,82.08
2022-09-14T04:33:57.250Z,78.83
2022-09-14T04:36:31.380Z,77.00
2022-09-14T04:39:01.212Z,74.88
2022-09-14T04:41:29.613Z,73.32
2022-09-14T04:43:57.341Z,72.25
2022-09-14T04:46:31.201Z,70.55
2022-09-14T04:48:58.984Z,70.99
2022-09-14T04:51:28.531Z,70.41
2022-09-14T04:53:56.970Z,71.37
2022-09-14T04:56:25.031Z,71.48
2022-09-14T04:58:58.599Z,71.65
2022-09-14T05:01:29.190Z,71.75
2022-09-14T05:03:56.999Z,70.48
2022-09-14T05:06:28.272Z,69.62
2022-09-14T05:08:56.001Z,69.86
2022-09-14T05:11:25.407Z,68.56
2022-09-14T05:13:52.410Z,67.97
2022-09-14T05:16:26.599Z,66.55
2022-09-14T05:18:58.957Z,66.02
2022-09-14T05:21:25.919Z,65.70
2022-09-14T05:24:00.528Z,66.20
2022-09-14T05:26:29.548Z,64.82
2022-09-14T05:29:00.147Z,63.25
2022-09-14T05:31:29.002Z,62.42
2022-09-14T05:33:56.202Z,62.19
2022-09-14T05:36:23.693Z,61.09
2022-09-14T05:38:51.004Z,60.71
2022-09-14T05:41:18.418Z,61.07
2022-09-14T05:43:45.679Z,60.14
2022-09-14T05:46:15.163Z,59.57
2022-09-14T05:48:42.696Z,59.79
2022-09-14T05:51:17.509Z,59.34
2022-09-14T05:53:51.675Z,59.29
2022-09-14T05:56:20.137Z,58.91
2022-09-14T05:58:47.646Z,57.47
2022-09-14T06:01:23.309Z,56.50
2022-09-14T06:04:36.592Z,55.18
2022-09-14T06:07:17.886Z,54.71
2022-09-14T06:09:45.597Z,54.13
2022-09-14T06:12:14.698Z,54.26
2022-09-14T06:14:41.691Z,53.17
2022-09-14T06:17:08.625Z,52.44
2022-09-14T06:19:35.544Z,52.72
2022-09-14T06:22:02.480Z,51.57
2022-09-14T06:24:29.626Z,51.67
2022-09-14T06:26:56.659Z,50.25
2022-09-14T06:29:23.623Z,51.11
2022-09-14T06:31:50.517Z,50.35
2022-09-14T06:34:18.063Z,49.76
2022-09-14T06:36:45.576Z,47.90
2022-09-14T06:39:12.629Z,48.89
2022-09-14T06:41:39.572Z,48.92
2022-09-14T06:44:16.595Z,48.92
2022-09-14T06:46:47.396Z,47.32
2022-09-14T06:49:20.923Z,47.34
2022-09-14T06:51:48.119Z,47.98
2022-09-14T06:54:16.489Z,47.07
2022-09-14T06:56:45.065Z,47.21
2022-09-14T06:59:13.962Z,46.02
2022-09-14T07:01:41.421Z,46.76
2022-09-14T07:04:08.749Z,47.15
2022-09-14T07:06:41.886Z,46.49
2022-09-14T07:09:08.898Z,45.48
2022-09-14T07:11:36.067Z,45.20
2022-09-14T07:14:03.046Z,45.13
2022-09-14T07:16:31.970Z,44.90
2022-09-14T07:19:04.636Z,45.67
2022-09-14T07:21:33.161Z,45.40
2022-09-14T07:24:00.898Z,46.50
2022-09-14T07:26:30.683Z,45.06
2022-09-14T07:29:03.723Z,46.03
2022-09-14T07:31:36.015Z,45.12
2022-09-14T07:34:04.669Z,44.76
2022-09-14T07:36:34.946Z,43.87
2022-09-14T07:39:05.122Z,43.66
2022-09-14T07:41:34.343Z,42.77
2022-09-14T07:44:03.065Z,42.63
2022-09-14T07:46:34.884Z,42.16
2022-09-14T07:49:02.674Z,42.59
2022-09-14T07:51:31.024Z,42.27
2022-09-14T07:54:00.126Z,41.34
2022-09-14T07:56:27.302Z,42.21
2022-09-14T07:59:11.391Z,41.87
2022-09-14T08:01:44.351Z,42.31
2022-09-14T08:04:11.197Z,41.69
2022-09-14T08:06:40.623Z,40.86
2022-09-14T08:09:11.173Z,41.13
2022-09-14T08:11:38.784Z,40.58
2022-09-14T08:14:11.949Z,39.84
2022-09-14T08:16:40.839Z,39.88
2022-09-14T08:19:19.837Z,39.38
2022-09-14T08:21:47.909Z,39.23
2022-09-14T08:24:17.985Z,38.62
2022-09-14T08:26:45.629Z,38.57
2022-09-14T08:29:14.101Z,37.51
2022-09-14T08:31:41.229Z,37.95
2022-09-14T08:34:08.795Z,38.63
2022-09-14T08:36:38.265Z,37.93
2022-09-14T08:39:09.184Z,35.65
2022-09-14T08:41:44.696Z,36.07
2022-09-14T08:44:17.438Z,35.83
2022-09-14T08:47:03.096Z,35.62
2022-09-14T08:49:36.241Z,36.11
2022-09-14T08:52:03.918Z,36.39
2022-09-14T08:54:37.331Z,36.15
2022-09-14T08:57:20.121Z,35.81
2022-09-14T09:00:00.422Z,35.04
2022-09-14T09:02:52.934Z,33.79
2022-09-14T09:06:07.450Z,34.21
2022-09-14T09:08:53.977Z,34.18
2022-09-14T09:11:24.421Z,33.97
2022-09-14T09:13:53.361Z,34.52
2022-09-14T09:16:24.950Z,34.04
2022-09-14T09:18:57.855Z,34.78
2022-09-14T09:21:31.833Z,34.65
2022-09-14T09:24:28.378Z,33.58
2022-09-14T09:26:55.226Z,34.08
2022-09-14T09:29:22.214Z,33.71
2022-09-14T09:32:26.020Z,33.93
2022-09-14T09:35:01.886Z,33.96
2022-09-14T09:37:52.338Z,33.12
2022-09-14T09:40:25.786Z,33.31
2022-09-14T09:43:04.298Z,33.33
2022-09-14T10:17:33.990Z,32.50
2022-09-14T10:20:01.122Z,32.49
2022-09-14T10:22:31.325Z,32.17
2022-09-14T10:25:00.121Z,31.83
2022-09-14T10:27:39.850Z,31.68
2022-09-14T10:30:14.087Z,31.01
2022-09-14T10:32:45.723Z,31.24
2022-09-14T10:35:15.215Z,29.90
2022-09-14T10:38:06.892Z,29.60
2022-09-14T10:40:38.472Z,29.22
2022-09-14T10:43:30.578Z,28.93
2022-09-14T10:46:03.536Z,28.69
2022-09-14T10:48:44.609Z,29.32
2022-09-14T10:51:30.384Z,30.65
2022-09-14T10:54:21.950Z,29.92
2022-09-14T10:57:04.302Z,30.42
2022-09-14T10:59:55.655Z,29.78
2022-09-14T11:02:49.395Z,28.76
2022-09-14T11:05:24.330Z,28.66
2022-09-14T11:07:54.221Z,27.87
2022-09-14T11:10:40.037Z,28.02
2022-09-14T11:13:24.366Z,28.08
2022-09-14T11:15:51.266Z,27.39
2022-09-14T11:18:53.366Z,27.71
2022-09-14T11:21:22.909Z,27.56
2022-09-14T11:24:06.623Z,27.73
2022-09-14T11:27:03.368Z,26.93
2022-09-14T11:29:36.226Z,27.23
2022-09-14T11:32:37.356Z,26.65
2022-09-14T11:35:13.347Z,26.28
2022-09-14T11:37:58.442Z,26.68
2022-09-14T11:40:29.425Z,26.54
2022-09-14T11:43:14.051Z,26.35
2022-09-14T11:46:06.560Z,26.04
2022-09-14T11:48:42.841Z,26.60
2022-09-14T11:51:24.276Z,26.00
2022-09-14T11:53:51.812Z,25.72
2022-09-14T11:56:26.494Z,25.70
2022-09-14T11:58:56.368Z,25.64
2022-09-14T12:01:31.714Z,26.08
2022-09-14T12:04:01.699Z,25.95
2022-09-14T12:06:31.594Z,25.63
2022-09-14T12:09:17.307Z,25.13
2022-09-14T12:11:45.752Z,24.97
2022-09-14T12:14:15.105Z,25.51
2022-09-14T12:17:22.768Z,26.17
2022-09-14T12:19:58.771Z,25.90
2022-09-14T12:22:38.119Z,26.02
2022-09-14T12:25:20.288Z,25.48
2022-09-14T12:27:49.125Z,25.54
2022-09-14T12:30:39.913Z,26.12
2022-09-14T12:33:33.555Z,25.74
2022-09-14T12:36:01.405Z,26.23
2022-09-14T12:38:31.235Z,25.79
2022-09-14T12:41:03.164Z,24.90
2022-09-14T12:43:33.247Z,24.75
2022-09-14T12:46:20.449Z,25.76
2022-09-14T12:48:47.447Z,25.42
2022-09-14T12:51:32.810Z,25.73
2022-09-14T12:54:08.502Z,26.03
2022-09-14T12:56:43.871Z,26.50
2022-09-14T12:59:36.218Z,26.40
2022-09-14T13:02:17.974Z,26.60
2022-09-14T13:04:47.945Z,26.06
2022-09-14T13:07:17.868Z,25.50
2022-09-14T13:10:04.588Z,25.54
2022-09-14T13:12:34.155Z,25.14
2022-09-14T13:15:06.339Z,25.54
2022-09-14T13:17:33.430Z,25.39
2022-09-14T13:20:05.855Z,26.29
2022-09-14T13:22:33.981Z,26.24
2022-09-14T13:25:04.180Z,27.04
2022-09-14T13:27:36.524Z,26.78
2022-09-14T13:30:18.318Z,26.24
2022-09-14T13:32:51.500Z,26.88
2022-09-14T13:35:18.344Z,27.10
2022-09-14T13:37:48.286Z,27.35
2022-09-14T13:40:15.582Z,26.99
2022-09-14T13:42:43.157Z,26.90
2022-09-14T13:45:13.161Z,26.83
2022-09-14T13:47:40.466Z,26.85
2022-09-14T13:50:08.163Z,27.04
2022-09-14T13:53:00.628Z,26.96
2022-09-14T13:55:43.985Z,32.48
2022-09-14T13:58:21.649Z,35.85
2022-09-14T14:01:06.446Z,37.46
2022-09-14T14:03:48.536Z,36.90
2022-09-14T14:06:32.785Z,29.63
2022-09-14T14:09:04.956Z,31.92
2022-09-14T14:11:53.012Z,36.01
2022-09-14T14:14:28.810Z,36.11
2022-09-14T14:17:20.404Z,36.96
2022-09-14T14:19:48.716Z,37.40
2022-09-14T14:22:15.668Z,37.50
2022-09-14T14:25:11.762Z,37.24
2022-09-14T14:27:41.639Z,37.08
2022-09-14T14:30:17.835Z,35.62
2022-09-14T14:32:49.364Z,36.40
2022-09-14T14:35:20.087Z,36.40
2022-09-14T14:37:47.977Z,36.44
2022-09-14T14:40:16.616Z,36.81
2022-09-14T14:42:44.576Z,36.73
2022-09-14T14:45:19.015Z,36.25
2022-09-14T14:47:47.503Z,37.18
2022-09-14T14:50:22.699Z,37.59
2022-09-14T14:52:51.609Z,37.85
2022-09-14T14:55:21.198Z,38.67
2022-09-14T14:57:49.021Z,38.92
2022-09-14T15:00:24.319Z,38.71
2022-09-14T15:02:51.687Z,39.76
2022-09-14T15:05:19.782Z,39.72
2022-09-14T15:07:47.714Z,40.25
2022-09-14T15:10:16.445Z,40.52
2022-09-14T15:12:44.194Z,40.59
2022-09-14T15:15:24.080Z,40.96
2022-09-14T15:17:51.989Z,41.98
2022-09-14T15:20:19.951Z,42.28
2022-09-14T15:22:48.075Z,43.25
2022-09-14T15:25:16.731Z,43.66
2022-09-14T15:27:44.018Z,44.82
2022-09-14T15:30:12.153Z,45.36
2022-09-14T15:32:40.095Z,45.52
2022-09-14T15:35:10.314Z,45.67
2022-09-14T15:37:37.274Z,47.25
2022-09-14T15:40:05.555Z,49.03
2022-09-14T15:42:32.520Z,50.85
2022-09-14T15:44:59.594Z,51.71
2022-09-14T15:47:26.469Z,53.03
2022-09-14T15:49:53.539Z,53.56
2022-09-14T15:52:20.573Z,54.78
2022-09-14T15:54:48.545Z,54.75
2022-09-14T15:57:15.454Z,55.06
2022-09-14T15:59:42.469Z,56.25
2022-09-14T16:02:11.098Z,56.15
2022-09-14T16:04:39.293Z,57.26
2022-09-14T16:07:10.073Z,57.66
2022-09-14T16:09:39.643Z,58.79
2022-09-14T16:12:07.942Z,58.64
2022-09-14T16:14:34.987Z,57.85
2022-09-14T16:17:02.812Z,57.93
2022-09-14T16:19:30.060Z,57.78
2022-09-14T16:21:57.034Z,58.34
2022-09-14T16:24:25.386Z,59.22
2022-09-14T16:26:53.334Z,58.52
2022-09-14T16:29:21.738Z,58.71
2022-09-14T16:31:49.540Z,59.70
2022-09-14T16:34:26.008Z,59.40
2022-09-14T16:36:53.284Z,59.64
2022-09-14T16:39:23.121Z,59.33
2022-09-14T16:41:50.358Z,59.62
2022-09-14T16:44:25.718Z,60.36
2022-09-14T16:46:54.165Z,61.11
2022-09-14T16:49:24.967Z,61.16
2022-09-14T16:51:54.394Z,60.76
2022-09-14T16:54:23.171Z,61.45
2022-09-14T16:56:50.761Z,61.17
2022-09-14T16:59:19.475Z,62.38
2022-09-14T17:01:51.940Z,62.21
2022-09-14T17:04:22.185Z,61.90
2022-09-14T17:06:51.801Z,61.36
2022-09-14T17:09:25.420Z,61.75
2022-09-14T17:11:54.144Z,61.65
2022-09-14T17:14:24.849Z,61.52
2022-09-14T17:16:52.144Z,61.95
2022-09-14T17:19:19.165Z,61.92
2022-09-14T17:21:47.488Z,61.98
2022-09-14T17:24:15.980Z,61.78
2022-09-14T17:26:43.338Z,62.37
2022-09-14T17:29:10.979Z,62.64
2022-09-14T17:31:40.648Z,63.08
2022-09-14T17:34:09.737Z,62.58
2022-09-14T17:36:38.313Z,62.55
2022-09-14T17:39:11.353Z,62.74
2022-09-14T17:41:41.279Z,62.87
2022-09-14T17:44:11.309Z,63.09
2022-09-14T17:46:46.004Z,63.57
2022-09-14T17:49:16.374Z,63.64
2022-09-14T17:51:45.497Z,63.70
2022-09-14T17:54:12.941Z,63.56
2022-09-14T17:56:39.930Z,63.43
2022-09-14T17:59:10.993Z,63.38
2022-09-14T18:01:38.822Z,63.05
2022-09-14T18:04:09.972Z,63.36
2022-09-14T18:06:42.464Z,63.79
2022-09-14T18:09:17.069Z,64.23
2022-09-14T18:11:45.008Z,64.01
2022-09-14T18:14:13.838Z,64.30
2022-09-14T18:16:41.598Z,64.24
2022-09-14T18:19:08.945Z,64.45
2022-09-14T18:21:36.278Z,64.55
2022-09-14T18:24:03.937Z,65.14
2022-09-14T18:26:31.068Z,65.74
2022-09-14T18:28:58.836Z,65.39
2022-09-14T18:31:26.349Z,65.32
2022-09-14T18:33:59.219Z,65.51
2022-09-14T18:36:29.322Z,65.68
2022-09-14T18:38:58.244Z,66.15
2022-09-14T18:41:26.202Z,66.50
2022-09-14T18:43:53.732Z,66.00
2022-09-14T18:46:25.752Z,66.23
2022-09-14T18:48:56.897Z,66.42
2022-09-14T18:51:24.148Z,66.23
2022-09-14T18:54:00.122Z,67.74
2022-09-14T18:56:28.109Z,69.05
2022-09-14T18:58:55.554Z,69.30
2022-09-14T19:01:22.670Z,69.58
2022-09-14T19:03:50.095Z,69.66
2022-09-14T19:06:18.894Z,69.95
2022-09-14T19:08:46.797Z,69.56
2022-09-14T19:11:17.961Z,69.17
2022-09-14T19:13:46.525Z,68.96
2022-09-14T19:16:19.700Z,69.61
2022-09-14T19:18:48.408Z,69.47
2022-09-14T19:21:23.616Z,69.17
2022-09-14T19:24:00.478Z,69.16
2022-09-14T19:26:40.031Z,69.89
2022-09-14T19:29:11.783Z,69.61
2022-09-14T19:31:38.739Z,69.77
2022-09-14T19:34:06.038Z,70.00
2022-09-14T19:36:35.080Z,70.04
2022-09-14T19:39:04.237Z,69.61
2022-09-14T19:41:33.175Z,69.47
2022-09-14T19:44:01.013Z,69.46
2022-09-14T19:46:29.194Z,69.01
2022-09-14T19:48:56.349Z,69.57
2022-09-14T19:51:25.662Z,69.74
2022-09-14T19:53:54.481Z,69.39
2022-09-14T19:56:23.055Z,69.30
2022-09-14T19:58:51.557Z,69.24
2022-09-14T20:01:20.183Z,69.68
2022-09-14T20:03:48.711Z,69.79
2022-09-14T20:06:23.469Z,69.09
2022-09-14T20:08:53.019Z,69.49
2022-09-14T20:11:23.915Z,69.44
2022-09-14T20:13:53.458Z,69.07
2022-09-14T20:16:25.369Z,69.42
2022-09-14T20:18:52.886Z,69.18
2022-09-14T20:21:24.828Z,68.56
2022-09-14T20:24:16.217Z,68.06
2022-09-14T20:26:47.943Z,67.58
2022-09-14T20:29:16.141Z,66.94
2022-09-14T20:31:43.915Z,67.08
2022-09-14T20:34:11.342Z,66.46
2022-09-14T20:36:38.867Z,66.05
2022-09-14T20:39:06.047Z,65.91
2022-09-14T20:41:35.116Z,66.32
2022-09-14T20:44:03.141Z,65.69
2022-09-14T20:49:23.943Z,65.56
2022-09-14T20:51:45.920Z,65.87
2022-09-14T20:51:52.829Z,65.38
2022-09-14T20:54:20.203Z,65.99
2022-09-14T20:56:47.416Z,66.24
2022-09-14T20:59:22.931Z,65.59
2022-09-14T21:01:51.591Z,65.15
2022-09-14T21:04:21.776Z,64.74
2022-09-14T21:06:52.698Z,66.09
2022-09-14T21:09:22.793Z,69.75
2022-09-14T21:11:49.881Z,71.57
2022-09-14T21:14:18.877Z,72.40
2022-09-14T21:16:47.627Z,72.78
2022-09-14T21:19:20.748Z,72.46
2022-09-14T21:21:49.101Z,73.83
2022-09-14T21:24:17.796Z,73.90
2022-09-14T21:26:45.974Z,75.54
2022-09-14T21:29:20.344Z,76.40
2022-09-14T21:31:48.874Z,75.88
2022-09-14T21:34:16.614Z,76.89
2022-09-14T21:36:46.089Z,77.13
2022-09-14T21:39:21.562Z,76.62
2022-09-14T21:41:54.483Z,76.27
2022-09-14T21:44:31.785Z,74.98
2022-09-14T21:46:59.343Z,73.76
2022-09-14T21:49:26.301Z,73.45
2022-09-14T21:51:53.359Z,71.43
2022-09-14T21:54:22.354Z,71.46
2022-09-14T21:56:49.549Z,70.73
2022-09-14T21:59:19.321Z,70.08
2022-09-14T22:01:47.696Z,69.93
2022-09-14T22:04:21.290Z,68.62
2022-09-14T22:06:48.940Z,68.31
2022-09-14T22:09:18.662Z,68.09
2022-09-14T22:11:46.162Z,67.35
2022-09-14T22:14:18.216Z,65.23
2022-09-14T22:16:45.762Z,64.68
2022-09-14T22:19:35.297Z,63.87
2022-09-14T22:22:03.840Z,63.89
2022-09-14T22:24:37.963Z,64.06
2022-09-14T22:27:08.107Z,65.23
2022-09-14T22:29:35.180Z,64.50
2022-09-14T22:32:02.272Z,64.74
2022-09-14T22:34:29.347Z,64.94
2022-09-14T22:36:56.259Z,64.96
2022-09-14T22:39:23.981Z,64.40
2022-09-14T22:41:50.884Z,63.85
2022-09-14T22:44:17.735Z,63.22
2022-09-14T22:46:44.909Z,63.85
2022-09-14T22:49:12.317Z,63.77
2022-09-14T22:51:39.340Z,63.31
2022-09-14T22:54:07.015Z,62.52
2022-09-14T22:56:37.472Z,62.25
2022-09-14T22:59:09.749Z,62.02
2022-09-14T23:01:39.250Z,61.74
2022-09-14T23:04:09.175Z,61.58
2022-09-14T23:06:42.908Z,61.67
2022-09-14T23:09:12.743Z,61.60
2022-09-14T23:11:39.915Z,61.19
2022-09-14T23:14:06.779Z,60.86
2022-09-14T23:16:33.778Z,62.06
2022-09-14T23:19:02.904Z,60.86
2022-09-14T23:21:31.309Z,61.39
2022-09-14T23:24:03.950Z,60.73
2022-09-14T23:26:31.638Z,60.13
2022-09-14T23:29:01.760Z,61.47
2022-09-14T23:31:30.031Z,61.67
2022-09-14T23:33:59.058Z,61.52
2022-09-14T23:36:26.491Z,61.45
2022-09-14T23:38:53.901Z,61.30
2022-09-14T23:41:22.917Z,61.18
2022-09-14T23:43:50.414Z,61.97
2022-09-14T23:46:18.310Z,61.96
2022-09-14T23:48:45.744Z,62.34
2022-09-14T23:51:13.389Z,61.99
2022-09-14T23:53:40.662Z,61.65
2022-09-14T23:56:08.455Z,62.29
2022-09-14T23:58:35.667Z,62.29
